sensor_id;sensor_type;location;lat;lon;timestamp;pressure;altitude;pressure_sealevel;temperature;humidity
4326;BME280;58429;49.826;10.880;2022-12-29T00:00:41;98162;;;6.79;75.86
4326;BME280;58429;49.826;10.880;2022-12-29T00:01:41;98157;;;6.79;75.63
4326;BME280;58429;49.826;10.880;2022-12-29T00:02:41;98152;;;6.82;75.43
4326;BME280;58429;49.826;10.880;2022-12-29T00:03:41;98158;;;6.81;75.55
4326;BME280;58429;49.826;10.880;2022-12-29T00:04:41;98165;;;6.82;75.56
4326;BME280;58429;49.826;10.880;2022-12-29T00:05:41;98157;;;6.85;75.25
4326;BME280;58429;49.826;10.880;2022-12-29T00:06:41;98158;;;6.87;75.16
4326;BME280;58429;49.826;10.880;2022-12-29T00:07:41;98154;;;6.9;74.94
4326;BME280;58429;49.826;10.880;2022-12-29T00:08:41;98158;;;6.91;75.16
4326;BME280;58429;49.826;10.880;2022-12-29T00:09:41;98161;;;6.91;75.09
4326;BME280;58429;49.826;10.880;2022-12-29T00:10:41;98156;;;6.94;74.71
4326;BME280;58429;49.826;10.880;2022-12-29T00:11:41;98157;;;6.98;74.82
4326;BME280;58429;49.826;10.880;2022-12-29T00:12:41;98159;;;7.01;74.7
4326;BME280;58429;49.826;10.880;2022-12-29T00:13:41;98156;;;6.97;74.62
4326;BME280;58429;49.826;10.880;2022-12-29T00:14:41;98160;;;7.03;74.15
4326;BME280;58429;49.826;10.880;2022-12-29T00:15:41;98155;;;7.06;74.32
4326;BME280;58429;49.826;10.880;2022-12-29T00:16:42;98155;;;7.07;74.62
4326;BME280;58429;49.826;10.880;2022-12-29T00:17:41;98157;;;7.09;74.22
4326;BME280;58429;49.826;10.880;2022-12-29T00:18:41;98159;;;7.07;74.1
4326;BME280;58429;49.826;10.880;2022-12-29T00:19:41;98165;;;7.12;74.2
4326;BME280;58429;49.826;10.880;2022-12-29T00:20:41;98156;;;7.15;74.32
4326;BME280;58429;49.826;10.880;2022-12-29T00:21:41;98152;;;7.15;73.97
4326;BME280;58429;49.826;10.880;2022-12-29T00:22:41;98165;;;7.18;73.88
4326;BME280;58429;49.826;10.880;2022-12-29T00:23:41;98153;;;7.18;74.17
4326;BME280;58429;49.826;10.880;2022-12-29T00:24:42;98157;;;7.18;73.85
4326;BME280;58429;49.826;10.880;2022-12-29T00:25:41;98153;;;7.17;73.78
4326;BME280;58429;49.826;10.880;2022-12-29T00:26:41;98154;;;7.22;74.05
4326;BME280;58429;49.826;10.880;2022-12-29T00:27:41;98149;;;7.22;74.14
4326;BME280;58429;49.826;10.880;2022-12-29T00:28:41;98155;;;7.18;73.79
4326;BME280;58429;49.826;10.880;2022-12-29T00:29:41;98149;;;7.24;73.65
4326;BME280;58429;49.826;10.880;2022-12-29T00:30:41;98154;;;7.23;74
4326;BME280;58429;49.826;10.880;2022-12-29T00:31:41;98150;;;7.22;73.94
4326;BME280;58429;49.826;10.880;2022-12-29T00:32:41;98148;;;7.24;73.92
4326;BME280;58429;49.826;10.880;2022-12-29T00:33:41;98146;;;7.27;73.92
4326;BME280;58429;49.826;10.880;2022-12-29T00:34:41;98143;;;7.23;73.84
4326;BME280;58429;49.826;10.880;2022-12-29T00:35:43;98147;;;7.28;73.67
4326;BME280;58429;49.826;10.880;2022-12-29T00:36:41;98145;;;7.3;73.67
4326;BME280;58429;49.826;10.880;2022-12-29T00:37:42;98147;;;7.3;73.59
4326;BME280;58429;49.826;10.880;2022-12-29T00:38:42;98146;;;7.31;73.38
4326;BME280;58429;49.826;10.880;2022-12-29T00:39:41;98149;;;7.31;73.32
4326;BME280;58429;49.826;10.880;2022-12-29T00:40:41;98147;;;7.33;73.54
4326;BME280;58429;49.826;10.880;2022-12-29T00:41:41;98153;;;7.34;73.68
4326;BME280;58429;49.826;10.880;2022-12-29T00:42:41;98148;;;7.33;73.74
4326;BME280;58429;49.826;10.880;2022-12-29T00:43:41;98150;;;7.33;73.62
4326;BME280;58429;49.826;10.880;2022-12-29T00:44:41;98151;;;7.34;73.65
4326;BME280;58429;49.826;10.880;2022-12-29T00:45:41;98149;;;7.36;73.24
4326;BME280;58429;49.826;10.880;2022-12-29T00:46:41;98149;;;7.34;73.65
4326;BME280;58429;49.826;10.880;2022-12-29T00:47:41;98147;;;7.34;73.71
4326;BME280;58429;49.826;10.880;2022-12-29T00:48:41;98138;;;7.36;73.85
4326;BME280;58429;49.826;10.880;2022-12-29T00:49:41;98143;;;7.35;73.62
4326;BME280;58429;49.826;10.880;2022-12-29T00:50:41;98142;;;7.34;73.63
4326;BME280;58429;49.826;10.880;2022-12-29T00:51:41;98136;;;7.34;73.75
4326;BME280;58429;49.826;10.880;2022-12-29T00:52:41;98132;;;7.35;73.92
4326;BME280;58429;49.826;10.880;2022-12-29T00:53:41;98139;;;7.35;73.81
4326;BME280;58429;49.826;10.880;2022-12-29T00:54:41;98136;;;7.35;73.62
4326;BME280;58429;49.826;10.880;2022-12-29T00:55:41;98144;;;7.37;74.02
4326;BME280;58429;49.826;10.880;2022-12-29T00:56:41;98136;;;7.38;73.97
4326;BME280;58429;49.826;10.880;2022-12-29T00:57:41;98140;;;7.34;74.19
4326;BME280;58429;49.826;10.880;2022-12-29T00:58:41;98137;;;7.36;73.94
4326;BME280;58429;49.826;10.880;2022-12-29T00:59:41;98139;;;7.35;73.94
4326;BME280;58429;49.826;10.880;2022-12-29T01:00:41;98138;;;7.36;74.22
4326;BME280;58429;49.826;10.880;2022-12-29T01:01:41;98135;;;7.37;74.08
4326;BME280;58429;49.826;10.880;2022-12-29T01:02:41;98135;;;7.37;74.22
4326;BME280;58429;49.826;10.880;2022-12-29T01:03:41;98131;;;7.36;74.04
4326;BME280;58429;49.826;10.880;2022-12-29T01:04:41;98134;;;7.39;73.99
4326;BME280;58429;49.826;10.880;2022-12-29T01:05:41;98131;;;7.36;73.98
4326;BME280;58429;49.826;10.880;2022-12-29T01:06:41;98136;;;7.4;74.13
4326;BME280;58429;49.826;10.880;2022-12-29T01:07:41;98124;;;7.4;74.18
4326;BME280;58429;49.826;10.880;2022-12-29T01:08:41;98130;;;7.42;74.14
4326;BME280;58429;49.826;10.880;2022-12-29T01:09:41;98130;;;7.45;73.97
4326;BME280;58429;49.826;10.880;2022-12-29T01:10:41;98128;;;7.44;73.93
4326;BME280;58429;49.826;10.880;2022-12-29T01:11:41;98132;;;7.45;74.17
4326;BME280;58429;49.826;10.880;2022-12-29T01:12:41;98125;;;7.45;74.24
4326;BME280;58429;49.826;10.880;2022-12-29T01:13:41;98120;;;7.42;74.2
4326;BME280;58429;49.826;10.880;2022-12-29T01:14:41;98127;;;7.45;74.03
4326;BME280;58429;49.826;10.880;2022-12-29T01:15:41;98124;;;7.47;74.22
4326;BME280;58429;49.826;10.880;2022-12-29T01:16:41;98124;;;7.46;74.22
4326;BME280;58429;49.826;10.880;2022-12-29T01:17:41;98120;;;7.45;73.96
4326;BME280;58429;49.826;10.880;2022-12-29T01:18:41;98117;;;7.51;73.93
4326;BME280;58429;49.826;10.880;2022-12-29T01:19:41;98119;;;7.51;74.06
4326;BME280;58429;49.826;10.880;2022-12-29T01:20:41;98126;;;7.51;73.84
4326;BME280;58429;49.826;10.880;2022-12-29T01:21:41;98121;;;7.52;74.02
4326;BME280;58429;49.826;10.880;2022-12-29T01:22:41;98128;;;7.5;74.15
4326;BME280;58429;49.826;10.880;2022-12-29T01:23:41;98108;;;7.5;74.2
4326;BME280;58429;49.826;10.880;2022-12-29T01:24:41;98109;;;7.52;73.88
4326;BME280;58429;49.826;10.880;2022-12-29T01:25:41;98108;;;7.54;74.09
4326;BME280;58429;49.826;10.880;2022-12-29T01:26:41;98108;;;7.53;74.14
4326;BME280;58429;49.826;10.880;2022-12-29T01:27:41;98109;;;7.54;74.23
4326;BME280;58429;49.826;10.880;2022-12-29T01:28:41;98104;;;7.55;73.97
4326;BME280;58429;49.826;10.880;2022-12-29T01:29:41;98108;;;7.59;73.9
4326;BME280;58429;49.826;10.880;2022-12-29T01:30:41;98105;;;7.59;74.16
4326;BME280;58429;49.826;10.880;2022-12-29T01:31:41;98102;;;7.59;73.94
4326;BME280;58429;49.826;10.880;2022-12-29T01:32:41;98106;;;7.61;74.01
4326;BME280;58429;49.826;10.880;2022-12-29T01:33:41;98102;;;7.63;73.83
4326;BME280;58429;49.826;10.880;2022-12-29T01:34:41;98105;;;7.62;73.96
4326;BME280;58429;49.826;10.880;2022-12-29T01:35:41;98099;;;7.66;73.93
4326;BME280;58429;49.826;10.880;2022-12-29T01:36:41;98098;;;7.64;73.81
4326;BME280;58429;49.826;10.880;2022-12-29T01:37:41;98097;;;7.63;73.77
4326;BME280;58429;49.826;10.880;2022-12-29T01:38:41;98098;;;7.67;73.68
4326;BME280;58429;49.826;10.880;2022-12-29T01:39:41;98099;;;7.66;73.54
4326;BME280;58429;49.826;10.880;2022-12-29T01:40:43;98091;;;7.7;73.83
4326;BME280;58429;49.826;10.880;2022-12-29T01:41:41;98095;;;7.68;73.66
4326;BME280;58429;49.826;10.880;2022-12-29T01:42:41;98094;;;7.67;73.78
4326;BME280;58429;49.826;10.880;2022-12-29T01:43:42;98092;;;7.73;73.32
4326;BME280;58429;49.826;10.880;2022-12-29T01:44:47;98092;;;7.75;73.17
4326;BME280;58429;49.826;10.880;2022-12-29T01:45:42;98093;;;7.76;73.21
4326;BME280;58429;49.826;10.880;2022-12-29T01:46:50;98101;;;7.74;73.33
4326;BME280;58429;49.826;10.880;2022-12-29T01:47:42;98101;;;7.8;73.06
4326;BME280;58429;49.826;10.880;2022-12-29T01:48:41;98111;;;7.79;73.23
4326;BME280;58429;49.826;10.880;2022-12-29T01:49:41;98111;;;7.81;73.37
4326;BME280;58429;49.826;10.880;2022-12-29T01:50:42;98105;;;7.83;73.24
4326;BME280;58429;49.826;10.880;2022-12-29T01:51:43;98112;;;7.79;73.34
4326;BME280;58429;49.826;10.880;2022-12-29T01:52:42;98107;;;7.8;72.99
4326;BME280;58429;49.826;10.880;2022-12-29T01:53:41;98104;;;7.81;73.01
4326;BME280;58429;49.826;10.880;2022-12-29T01:54:42;98105;;;7.82;73.12
4326;BME280;58429;49.826;10.880;2022-12-29T01:55:42;98105;;;7.83;73.21
4326;BME280;58429;49.826;10.880;2022-12-29T01:56:41;98102;;;7.83;73.17
4326;BME280;58429;49.826;10.880;2022-12-29T01:57:42;98104;;;7.83;73.35
4326;BME280;58429;49.826;10.880;2022-12-29T01:58:41;98103;;;7.83;73.29
4326;BME280;58429;49.826;10.880;2022-12-29T01:59:42;98101;;;7.85;73.29
4326;BME280;58429;49.826;10.880;2022-12-29T02:00:41;98095;;;7.83;73.05
4326;BME280;58429;49.826;10.880;2022-12-29T02:01:41;98109;;;7.85;73.12
4326;BME280;58429;49.826;10.880;2022-12-29T02:02:42;98106;;;7.87;72.94
4326;BME280;58429;49.826;10.880;2022-12-29T02:03:41;98110;;;7.9;73.04
4326;BME280;58429;49.826;10.880;2022-12-29T02:04:41;98110;;;7.87;73.11
4326;BME280;58429;49.826;10.880;2022-12-29T02:05:42;98110;;;7.9;72.86
4326;BME280;58429;49.826;10.880;2022-12-29T02:06:42;98110;;;7.92;72.91
4326;BME280;58429;49.826;10.880;2022-12-29T02:07:41;98111;;;7.94;72.96
4326;BME280;58429;49.826;10.880;2022-12-29T02:08:41;98107;;;7.95;73.04
4326;BME280;58429;49.826;10.880;2022-12-29T02:09:41;98117;;;7.94;72.93
4326;BME280;58429;49.826;10.880;2022-12-29T02:10:41;98110;;;8;72.81
4326;BME280;58429;49.826;10.880;2022-12-29T02:11:41;98109;;;8.01;72.39
4326;BME280;58429;49.826;10.880;2022-12-29T02:12:41;98108;;;8.01;72.9
4326;BME280;58429;49.826;10.880;2022-12-29T02:13:41;98101;;;7.99;72.49
4326;BME280;58429;49.826;10.880;2022-12-29T02:14:41;98105;;;8.03;72.7
4326;BME280;58429;49.826;10.880;2022-12-29T02:15:45;98104;;;8.01;72.63
4326;BME280;58429;49.826;10.880;2022-12-29T02:16:47;98105;;;8.06;72.6
4326;BME280;58429;49.826;10.880;2022-12-29T02:17:44;98102;;;8.09;72.37
4326;BME280;58429;49.826;10.880;2022-12-29T02:18:46;98101;;;8.05;72.27
4326;BME280;58429;49.826;10.880;2022-12-29T02:19:48;98101;;;8.08;72.54
4326;BME280;58429;49.826;10.880;2022-12-29T02:20:56;98102;;;8.09;72.49
4326;BME280;58429;49.826;10.880;2022-12-29T02:21:45;98106;;;8.1;72.33
4326;BME280;58429;49.826;10.880;2022-12-29T02:22:43;98096;;;8.14;72.36
4326;BME280;58429;49.826;10.880;2022-12-29T02:23:47;98095;;;8.11;72.42
4326;BME280;58429;49.826;10.880;2022-12-29T02:25:18;98095;;;8.1;72.34
4326;BME280;58429;49.826;10.880;2022-12-29T02:25:46;98095;;;8.12;72.53
4326;BME280;58429;49.826;10.880;2022-12-29T02:26:44;98100;;;8.14;72.48
4326;BME280;58429;49.826;10.880;2022-12-29T02:27:46;98097;;;8.16;72.33
4326;BME280;58429;49.826;10.880;2022-12-29T02:28:47;98097;;;8.19;72.22
4326;BME280;58429;49.826;10.880;2022-12-29T02:29:46;98100;;;8.19;72.33
4326;BME280;58429;49.826;10.880;2022-12-29T02:30:44;98091;;;8.25;72.22
4326;BME280;58429;49.826;10.880;2022-12-29T02:31:41;98095;;;8.26;72.26
4326;BME280;58429;49.826;10.880;2022-12-29T02:32:44;98095;;;8.27;72.38
4326;BME280;58429;49.826;10.880;2022-12-29T02:33:44;98091;;;8.26;72.35
4326;BME280;58429;49.826;10.880;2022-12-29T02:34:44;98092;;;8.26;72.42
4326;BME280;58429;49.826;10.880;2022-12-29T02:35:45;98091;;;8.26;72.34
4326;BME280;58429;49.826;10.880;2022-12-29T02:36:42;98087;;;8.29;72.24
4326;BME280;58429;49.826;10.880;2022-12-29T02:37:41;98090;;;8.3;72.1
4326;BME280;58429;49.826;10.880;2022-12-29T02:38:45;98091;;;8.28;72.23
4326;BME280;58429;49.826;10.880;2022-12-29T02:39:42;98085;;;8.31;72.39
4326;BME280;58429;49.826;10.880;2022-12-29T02:40:42;98084;;;8.33;72.26
4326;BME280;58429;49.826;10.880;2022-12-29T02:41:42;98083;;;8.34;72.33
4326;BME280;58429;49.826;10.880;2022-12-29T02:42:44;98082;;;8.36;72.14
4326;BME280;58429;49.826;10.880;2022-12-29T02:43:43;98079;;;8.39;72.09
4326;BME280;58429;49.826;10.880;2022-12-29T02:44:45;98078;;;8.36;72.05
4326;BME280;58429;49.826;10.880;2022-12-29T02:45:43;98083;;;8.42;71.8
4326;BME280;58429;49.826;10.880;2022-12-29T02:46:42;98075;;;8.43;72.08
4326;BME280;58429;49.826;10.880;2022-12-29T02:47:41;98073;;;8.44;71.56
4326;BME280;58429;49.826;10.880;2022-12-29T02:48:42;98076;;;8.47;71.53
4326;BME280;58429;49.826;10.880;2022-12-29T02:49:43;98073;;;8.5;71.71
4326;BME280;58429;49.826;10.880;2022-12-29T02:50:43;98075;;;8.45;71.62
4326;BME280;58429;49.826;10.880;2022-12-29T02:51:45;98075;;;8.46;71.44
4326;BME280;58429;49.826;10.880;2022-12-29T02:52:42;98077;;;8.48;71.54
4326;BME280;58429;49.826;10.880;2022-12-29T02:53:41;98074;;;8.51;71.59
4326;BME280;58429;49.826;10.880;2022-12-29T02:54:41;98077;;;8.46;71.59
4326;BME280;58429;49.826;10.880;2022-12-29T02:55:47;98071;;;8.46;71.73
4326;BME280;58429;49.826;10.880;2022-12-29T02:56:41;98070;;;8.47;71.72
4326;BME280;58429;49.826;10.880;2022-12-29T02:57:41;98065;;;8.43;71.67
4326;BME280;58429;49.826;10.880;2022-12-29T02:58:41;98067;;;8.44;71.63
4326;BME280;58429;49.826;10.880;2022-12-29T02:59:41;98068;;;8.44;71.55
4326;BME280;58429;49.826;10.880;2022-12-29T03:00:43;98065;;;8.47;71.76
4326;BME280;58429;49.826;10.880;2022-12-29T03:01:46;98067;;;8.45;71.53
4326;BME280;58429;49.826;10.880;2022-12-29T03:03:16;98066;;;8.44;71.4
4326;BME280;58429;49.826;10.880;2022-12-29T03:03:45;98053;;;8.45;71.37
4326;BME280;58429;49.826;10.880;2022-12-29T03:04:43;98061;;;8.44;71.47
4326;BME280;58429;49.826;10.880;2022-12-29T03:05:44;98063;;;8.45;71.45
4326;BME280;58429;49.826;10.880;2022-12-29T03:06:45;98056;;;8.44;71.59
4326;BME280;58429;49.826;10.880;2022-12-29T03:07:43;98055;;;8.44;71.44
4326;BME280;58429;49.826;10.880;2022-12-29T03:08:43;98065;;;8.42;71.53
4326;BME280;58429;49.826;10.880;2022-12-29T03:09:42;98065;;;8.42;71.46
4326;BME280;58429;49.826;10.880;2022-12-29T03:10:44;98062;;;8.43;71.51
4326;BME280;58429;49.826;10.880;2022-12-29T03:11:42;98065;;;8.44;71.51
4326;BME280;58429;49.826;10.880;2022-12-29T03:12:43;98065;;;8.42;71.67
4326;BME280;58429;49.826;10.880;2022-12-29T03:13:43;98065;;;8.41;71.63
4326;BME280;58429;49.826;10.880;2022-12-29T03:14:47;98057;;;8.43;71.9
4326;BME280;58429;49.826;10.880;2022-12-29T03:15:42;98060;;;8.4;71.79
4326;BME280;58429;49.826;10.880;2022-12-29T03:16:43;98065;;;8.4;71.54
4326;BME280;58429;49.826;10.880;2022-12-29T03:17:46;98068;;;8.37;71.69
4326;BME280;58429;49.826;10.880;2022-12-29T03:18:45;98062;;;8.41;71.54
4326;BME280;58429;49.826;10.880;2022-12-29T03:19:44;98059;;;8.44;71.36
4326;BME280;58429;49.826;10.880;2022-12-29T03:20:42;98072;;;8.4;71.53
4326;BME280;58429;49.826;10.880;2022-12-29T03:21:43;98061;;;8.41;71.55
4326;BME280;58429;49.826;10.880;2022-12-29T03:22:42;98060;;;8.43;71.63
4326;BME280;58429;49.826;10.880;2022-12-29T03:23:42;98062;;;8.41;71.87
4326;BME280;58429;49.826;10.880;2022-12-29T03:24:43;98055;;;8.41;71.67
4326;BME280;58429;49.826;10.880;2022-12-29T03:25:42;98058;;;8.4;71.82
4326;BME280;58429;49.826;10.880;2022-12-29T03:26:41;98056;;;8.41;71.83
4326;BME280;58429;49.826;10.880;2022-12-29T03:27:42;98063;;;8.46;71.86
4326;BME280;58429;49.826;10.880;2022-12-29T03:28:43;98057;;;8.42;71.83
4326;BME280;58429;49.826;10.880;2022-12-29T03:29:42;98056;;;8.48;72.01
4326;BME280;58429;49.826;10.880;2022-12-29T03:30:41;98051;;;8.47;72.07
4326;BME280;58429;49.826;10.880;2022-12-29T03:31:41;98054;;;8.46;72.19
4326;BME280;58429;49.826;10.880;2022-12-29T03:32:42;98050;;;8.51;72.16
4326;BME280;58429;49.826;10.880;2022-12-29T03:33:41;98057;;;8.49;72.15
4326;BME280;58429;49.826;10.880;2022-12-29T03:34:41;98053;;;8.51;72.3
4326;BME280;58429;49.826;10.880;2022-12-29T03:35:42;98051;;;8.53;72.46
4326;BME280;58429;49.826;10.880;2022-12-29T03:36:44;98056;;;8.49;72.44
4326;BME280;58429;49.826;10.880;2022-12-29T03:37:43;98064;;;8.53;72.47
4326;BME280;58429;49.826;10.880;2022-12-29T03:38:42;98058;;;8.45;72.7
4326;BME280;58429;49.826;10.880;2022-12-29T03:39:41;98055;;;8.5;72.73
4326;BME280;58429;49.826;10.880;2022-12-29T03:40:42;98056;;;8.49;72.76
4326;BME280;58429;49.826;10.880;2022-12-29T03:41:42;98062;;;8.46;72.77
4326;BME280;58429;49.826;10.880;2022-12-29T03:42:41;98066;;;8.47;72.84
4326;BME280;58429;49.826;10.880;2022-12-29T03:43:41;98071;;;8.45;72.94
4326;BME280;58429;49.826;10.880;2022-12-29T03:44:42;98068;;;8.45;72.96
4326;BME280;58429;49.826;10.880;2022-12-29T03:45:41;98066;;;8.43;72.93
4326;BME280;58429;49.826;10.880;2022-12-29T03:46:41;98073;;;8.41;72.92
4326;BME280;58429;49.826;10.880;2022-12-29T03:47:41;98070;;;8.43;72.98
4326;BME280;58429;49.826;10.880;2022-12-29T03:48:41;98069;;;8.39;73.05
4326;BME280;58429;49.826;10.880;2022-12-29T03:49:41;98058;;;8.45;73.07
4326;BME280;58429;49.826;10.880;2022-12-29T03:50:41;98070;;;8.39;73.2
4326;BME280;58429;49.826;10.880;2022-12-29T03:51:41;98070;;;8.4;73.43
4326;BME280;58429;49.826;10.880;2022-12-29T03:52:41;98070;;;8.38;73.39
4326;BME280;58429;49.826;10.880;2022-12-29T03:53:41;98071;;;8.37;73.43
4326;BME280;58429;49.826;10.880;2022-12-29T03:54:41;98066;;;8.37;73.52
4326;BME280;58429;49.826;10.880;2022-12-29T03:55:41;98068;;;8.36;73.71
4326;BME280;58429;49.826;10.880;2022-12-29T03:56:41;98071;;;8.37;73.86
4326;BME280;58429;49.826;10.880;2022-12-29T03:57:41;98069;;;8.34;73.89
4326;BME280;58429;49.826;10.880;2022-12-29T03:58:41;98065;;;8.35;74.06
4326;BME280;58429;49.826;10.880;2022-12-29T03:59:41;98067;;;8.35;74.28
4326;BME280;58429;49.826;10.880;2022-12-29T04:00:41;98066;;;8.34;74.3
4326;BME280;58429;49.826;10.880;2022-12-29T04:01:41;98070;;;8.33;74.26
4326;BME280;58429;49.826;10.880;2022-12-29T04:02:41;98065;;;8.33;74.44
4326;BME280;58429;49.826;10.880;2022-12-29T04:03:41;98069;;;8.34;74.55
4326;BME280;58429;49.826;10.880;2022-12-29T04:04:41;98068;;;8.34;74.55
4326;BME280;58429;49.826;10.880;2022-12-29T04:05:41;98068;;;8.34;74.42
4326;BME280;58429;49.826;10.880;2022-12-29T04:06:41;98064;;;8.33;74.4
4326;BME280;58429;49.826;10.880;2022-12-29T04:07:41;98074;;;8.34;74.53
4326;BME280;58429;49.826;10.880;2022-12-29T04:08:41;98065;;;8.33;74.53
4326;BME280;58429;49.826;10.880;2022-12-29T04:09:41;98072;;;8.34;74.49
4326;BME280;58429;49.826;10.880;2022-12-29T04:10:41;98067;;;8.31;74.47
4326;BME280;58429;49.826;10.880;2022-12-29T04:11:41;98070;;;8.32;74.42
4326;BME280;58429;49.826;10.880;2022-12-29T04:12:41;98070;;;8.31;74.4
4326;BME280;58429;49.826;10.880;2022-12-29T04:13:41;98073;;;8.33;74.4
4326;BME280;58429;49.826;10.880;2022-12-29T04:14:41;98074;;;8.32;74.2
4326;BME280;58429;49.826;10.880;2022-12-29T04:15:42;98072;;;8.3;74.21
4326;BME280;58429;49.826;10.880;2022-12-29T04:16:41;98074;;;8.32;74.29
4326;BME280;58429;49.826;10.880;2022-12-29T04:17:41;98073;;;8.3;74.41
4326;BME280;58429;49.826;10.880;2022-12-29T04:18:41;98072;;;8.29;74.36
4326;BME280;58429;49.826;10.880;2022-12-29T04:19:41;98077;;;8.28;74.31
4326;BME280;58429;49.826;10.880;2022-12-29T04:20:41;98077;;;8.29;74.37
4326;BME280;58429;49.826;10.880;2022-12-29T04:21:41;98075;;;8.28;74.4
4326;BME280;58429;49.826;10.880;2022-12-29T04:22:41;98075;;;8.29;74.32
4326;BME280;58429;49.826;10.880;2022-12-29T04:23:41;98079;;;8.25;74.33
4326;BME280;58429;49.826;10.880;2022-12-29T04:24:41;98076;;;8.28;74.28
4326;BME280;58429;49.826;10.880;2022-12-29T04:25:44;98078;;;8.27;74.32
4326;BME280;58429;49.826;10.880;2022-12-29T04:26:41;98073;;;8.23;74.17
4326;BME280;58429;49.826;10.880;2022-12-29T04:27:41;98082;;;8.27;74.08
4326;BME280;58429;49.826;10.880;2022-12-29T04:28:41;98072;;;8.24;74.2
4326;BME280;58429;49.826;10.880;2022-12-29T04:29:41;98064;;;8.25;74.2
4326;BME280;58429;49.826;10.880;2022-12-29T04:30:42;98072;;;8.23;74.43
4326;BME280;58429;49.826;10.880;2022-12-29T04:31:41;98070;;;8.23;74.39
4326;BME280;58429;49.826;10.880;2022-12-29T04:32:41;98067;;;8.19;74.35
4326;BME280;58429;49.826;10.880;2022-12-29T04:33:41;98065;;;8.2;74.51
4326;BME280;58429;49.826;10.880;2022-12-29T04:34:41;98069;;;8.21;74.41
4326;BME280;58429;49.826;10.880;2022-12-29T04:35:42;98068;;;8.22;74.4
4326;BME280;58429;49.826;10.880;2022-12-29T04:36:41;98073;;;8.17;74.36
4326;BME280;58429;49.826;10.880;2022-12-29T04:37:41;98079;;;8.19;74.4
4326;BME280;58429;49.826;10.880;2022-12-29T04:38:41;98070;;;8.18;74.44
4326;BME280;58429;49.826;10.880;2022-12-29T04:39:41;98070;;;8.16;74.37
4326;BME280;58429;49.826;10.880;2022-12-29T04:40:42;98064;;;8.16;74.31
4326;BME280;58429;49.826;10.880;2022-12-29T04:41:41;98069;;;8.15;74.31
4326;BME280;58429;49.826;10.880;2022-12-29T04:42:41;98064;;;8.2;74.4
4326;BME280;58429;49.826;10.880;2022-12-29T04:43:41;98066;;;8.15;74.57
4326;BME280;58429;49.826;10.880;2022-12-29T04:44:41;98062;;;8.16;74.48
4326;BME280;58429;49.826;10.880;2022-12-29T04:45:42;98071;;;8.14;74.45
4326;BME280;58429;49.826;10.880;2022-12-29T04:46:41;98073;;;8.14;74.46
4326;BME280;58429;49.826;10.880;2022-12-29T04:47:41;98063;;;8.14;74.35
4326;BME280;58429;49.826;10.880;2022-12-29T04:48:41;98064;;;8.18;74.14
4326;BME280;58429;49.826;10.880;2022-12-29T04:49:41;98065;;;8.18;74.09
4326;BME280;58429;49.826;10.880;2022-12-29T04:50:42;98067;;;8.22;74.13
4326;BME280;58429;49.826;10.880;2022-12-29T04:51:41;98056;;;8.23;74.29
4326;BME280;58429;49.826;10.880;2022-12-29T04:52:41;98068;;;8.2;74.42
4326;BME280;58429;49.826;10.880;2022-12-29T04:53:41;98062;;;8.18;74.17
4326;BME280;58429;49.826;10.880;2022-12-29T04:54:41;98065;;;8.25;73.88
4326;BME280;58429;49.826;10.880;2022-12-29T04:55:41;98071;;;8.22;73.76
4326;BME280;58429;49.826;10.880;2022-12-29T04:56:41;98073;;;8.22;73.77
4326;BME280;58429;49.826;10.880;2022-12-29T04:57:41;98064;;;8.24;73.8
4326;BME280;58429;49.826;10.880;2022-12-29T04:58:41;98059;;;8.23;73.78
4326;BME280;58429;49.826;10.880;2022-12-29T04:59:42;98061;;;8.23;73.83
4326;BME280;58429;49.826;10.880;2022-12-29T05:00:41;98071;;;8.26;73.56
4326;BME280;58429;49.826;10.880;2022-12-29T05:01:41;98062;;;8.28;73.55
4326;BME280;58429;49.826;10.880;2022-12-29T05:02:41;98063;;;8.27;73.5
4326;BME280;58429;49.826;10.880;2022-12-29T05:03:41;98060;;;8.26;73.66
4326;BME280;58429;49.826;10.880;2022-12-29T05:04:41;98052;;;8.3;73.5
4326;BME280;58429;49.826;10.880;2022-12-29T05:05:41;98054;;;8.29;73.46
4326;BME280;58429;49.826;10.880;2022-12-29T05:06:41;98059;;;8.27;73.44
4326;BME280;58429;49.826;10.880;2022-12-29T05:07:41;98063;;;8.27;73.48
4326;BME280;58429;49.826;10.880;2022-12-29T05:08:41;98062;;;8.26;73.4
4326;BME280;58429;49.826;10.880;2022-12-29T05:09:41;98060;;;8.29;73.3
4326;BME280;58429;49.826;10.880;2022-12-29T05:10:43;98058;;;8.27;73.28
4326;BME280;58429;49.826;10.880;2022-12-29T05:11:41;98059;;;8.27;73.23
4326;BME280;58429;49.826;10.880;2022-12-29T05:12:41;98072;;;8.26;73.36
4326;BME280;58429;49.826;10.880;2022-12-29T05:13:44;98066;;;8.28;73.3
4326;BME280;58429;49.826;10.880;2022-12-29T05:14:41;98063;;;8.28;73.19
4326;BME280;58429;49.826;10.880;2022-12-29T05:15:45;98074;;;8.3;73.25
4326;BME280;58429;49.826;10.880;2022-12-29T05:16:41;98071;;;8.29;73.26
4326;BME280;58429;49.826;10.880;2022-12-29T05:17:41;98075;;;8.3;73.26
4326;BME280;58429;49.826;10.880;2022-12-29T05:18:41;98065;;;8.29;73.06
4326;BME280;58429;49.826;10.880;2022-12-29T05:19:41;98064;;;8.28;73.23
4326;BME280;58429;49.826;10.880;2022-12-29T05:20:41;98062;;;8.3;72.93
4326;BME280;58429;49.826;10.880;2022-12-29T05:21:41;98058;;;8.29;73.06
4326;BME280;58429;49.826;10.880;2022-12-29T05:22:41;98059;;;8.29;72.95
4326;BME280;58429;49.826;10.880;2022-12-29T05:23:41;98053;;;8.3;73.04
4326;BME280;58429;49.826;10.880;2022-12-29T05:24:41;98041;;;8.29;72.94
4326;BME280;58429;49.826;10.880;2022-12-29T05:25:42;98033;;;8.31;72.83
4326;BME280;58429;49.826;10.880;2022-12-29T05:26:41;98035;;;8.29;72.67
4326;BME280;58429;49.826;10.880;2022-12-29T05:27:41;98028;;;8.3;72.67
4326;BME280;58429;49.826;10.880;2022-12-29T05:28:41;98032;;;8.3;72.62
4326;BME280;58429;49.826;10.880;2022-12-29T05:29:41;98030;;;8.27;72.66
4326;BME280;58429;49.826;10.880;2022-12-29T05:30:41;98024;;;8.26;72.79
4326;BME280;58429;49.826;10.880;2022-12-29T05:31:41;98029;;;8.25;72.66
4326;BME280;58429;49.826;10.880;2022-12-29T05:32:41;98028;;;8.25;72.66
4326;BME280;58429;49.826;10.880;2022-12-29T05:33:41;98026;;;8.21;72.65
4326;BME280;58429;49.826;10.880;2022-12-29T05:34:41;98025;;;8.17;72.74
4326;BME280;58429;49.826;10.880;2022-12-29T05:35:41;98030;;;8.21;72.72
4326;BME280;58429;49.826;10.880;2022-12-29T05:36:41;98033;;;8.16;72.8